Time;durP1;ratioP1;P1;durP2;ratioP2;P2;SDS_P1;SDS_P2;PMS_P1;PMS_P2;Temp;Humidity;BMP_temperature;BMP_pressure;BME280_temperature;BME280_humidity;BME280_pressure;Samples;Min_cycle;Max_cycle;Signal;HPM_P1;HPM_P2
2022/03/04 00:02:22;;;;;;;55.88;34.15;;;;;;;;;;5015719;28;20080;-81
2022/03/04 00:04:48;;;;;;;60.65;41.42;;;;;;;;;;5015337;28;20052;-81
2022/03/04 00:07:14;;;;;;;58.10;36.83;;;;;;;;;;5015710;28;20077;-82
2022/03/04 00:09:40;;;;;;;51.53;35.90;;;;;;;;;;5015779;28;20022;-80
2022/03/04 00:12:07;;;;;;;54.50;36.03;;;;;;;;;;5015815;28;20026;-82
2022/03/04 00:14:33;;;;;;;44.60;30.15;;;;;;;;;;5015585;28;20505;-81
2022/03/04 00:16:59;;;;;;;42.15;28.00;;;;;;;;;;5015472;28;20026;-80
2022/03/04 00:19:25;;;;;;;42.92;28.42;;;;;;;;;;5015932;28;20476;-82
2022/03/04 00:21:52;;;;;;;48.25;29.10;;;;;;;;;;5015179;28;20092;-81
2022/03/04 00:24:19;;;;;;;44.55;29.80;;;;;;;;;;5015441;28;20030;-82
2022/03/04 00:26:45;;;;;;;48.95;27.80;;;;;;;;;;5015520;28;20442;-79
2022/03/04 00:29:12;;;;;;;45.30;30.00;;;;;;;;;;5015143;28;20417;-82
2022/03/04 00:31:39;;;;;;;41.35;29.45;;;;;;;;;;5015487;28;20014;-82
2022/03/04 00:34:06;;;;;;;37.17;23.67;;;;;;;;;;5015350;28;20037;-82
2022/03/04 00:36:39;;;;;;;41.70;27.05;;;;;;;;;;5015974;28;20022;-81
2022/03/04 00:39:08;;;;;;;34.83;23.65;;;;;;;;;;5015309;28;20057;-81
2022/03/04 00:41:34;;;;;;;35.88;23.45;;;;;;;;;;5015541;28;20044;-81
2022/03/04 00:44:00;;;;;;;38.88;24.50;;;;;;;;;;5014930;28;20021;-81
2022/03/04 00:46:26;;;;;;;33.97;23.45;;;;;;;;;;5015194;28;20108;-81
2022/03/04 00:48:52;;;;;;;34.15;23.75;;;;;;;;;;5015114;28;20068;-82
2022/03/04 00:51:19;;;;;;;38.28;25.23;;;;;;;;;;5014972;28;20029;-82
2022/03/04 00:53:45;;;;;;;32.35;22.30;;;;;;;;;;5015222;28;20493;-81
2022/03/04 00:56:12;;;;;;;35.83;24.15;;;;;;;;;;5015257;28;20385;-80
2022/03/04 00:58:39;;;;;;;33.88;23.75;;;;;;;;;;5014831;28;20026;-82
2022/03/04 01:01:05;;;;;;;31.52;21.75;;;;;;;;;;5014855;28;20034;-82
2022/03/04 01:03:32;;;;;;;31.73;20.05;;;;;;;;;;5015042;28;20431;-81
2022/03/04 01:05:58;;;;;;;32.13;21.70;;;;;;;;;;5014703;28;20029;-80
2022/03/04 01:08:24;;;;;;;33.17;22.17;;;;;;;;;;5014894;28;20032;-81
2022/03/04 01:10:50;;;;;;;33.95;22.23;;;;;;;;;;4996880;28;20124;-82
2022/03/04 01:13:17;;;;;;;25.90;19.90;;;;;;;;;;4996328;28;20469;-82
2022/03/04 01:15:43;;;;;;;38.15;23.52;;;;;;;;;;5014996;28;20043;-82
2022/03/04 01:18:10;;;;;;;36.67;24.65;;;;;;;;;;5014476;28;20533;-82
2022/03/04 01:20:36;;;;;;;45.50;29.25;;;;;;;;;;5014777;28;20017;-81
2022/03/04 01:23:02;;;;;;;40.70;27.95;;;;;;;;;;4996857;28;20481;-82
2022/03/04 01:25:29;;;;;;;44.13;26.40;;;;;;;;;;5014601;28;20033;-81
2022/03/04 01:27:55;;;;;;;34.38;21.98;;;;;;;;;;5014312;28;20033;-82
2022/03/04 01:30:21;;;;;;;36.85;22.65;;;;;;;;;;5014447;28;20121;-83
2022/03/04 01:32:47;;;;;;;34.53;21.58;;;;;;;;;;5014518;28;20076;-81
2022/03/04 01:35:14;;;;;;;27.63;17.02;;;;;;;;;;5014381;28;20026;-83
2022/03/04 01:37:40;;;;;;;23.58;15.25;;;;;;;;;;5014519;28;20056;-81
2022/03/04 01:40:08;;;;;;;24.35;16.05;;;;;;;;;;4996393;28;20116;-83
2022/03/04 01:42:34;;;;;;;26.83;17.42;;;;;;;;;;5014232;28;20465;-82
2022/03/04 01:45:01;;;;;;;28.08;18.35;;;;;;;;;;5013939;28;20084;-82
2022/03/04 01:47:27;;;;;;;27.08;17.77;;;;;;;;;;5014122;28;20029;-82
2022/03/04 01:49:53;;;;;;;30.55;17.90;;;;;;;;;;4996327;28;20371;-80
2022/03/04 01:52:20;;;;;;;27.98;17.67;;;;;;;;;;5013869;28;20448;-82
2022/03/04 01:54:46;;;;;;;30.58;19.77;;;;;;;;;;5013970;28;20085;-81
2022/03/04 01:57:12;;;;;;;32.38;20.23;;;;;;;;;;5013872;28;20077;-82
2022/03/04 01:59:38;;;;;;;36.75;23.60;;;;;;;;;;5013868;28;20036;-81
2022/03/04 02:02:04;;;;;;;34.40;22.42;;;;;;;;;;5013501;28;20025;-81
2022/03/04 02:04:31;;;;;;;34.42;23.85;;;;;;;;;;5013619;28;20029;-81
2022/03/04 02:06:57;;;;;;;33.40;21.42;;;;;;;;;;5013580;28;20030;-81
2022/03/04 02:09:23;;;;;;;29.42;19.38;;;;;;;;;;5013422;28;20022;-81
2022/03/04 02:11:49;;;;;;;28.88;19.60;;;;;;;;;;4996034;28;20022;-82
2022/03/04 02:14:16;;;;;;;29.27;18.77;;;;;;;;;;4995394;28;20060;-83
2022/03/04 02:16:46;;;;;;;23.27;15.88;;;;;;;;;;5013552;28;20029;-81
2022/03/04 02:19:12;;;;;;;28.88;16.85;;;;;;;;;;5013330;28;20025;-81
2022/03/04 02:21:42;;;;;;;25.15;17.13;;;;;;;;;;5013492;28;20022;-82
2022/03/04 02:24:09;;;;;;;28.27;18.55;;;;;;;;;;5012963;28;20053;-82
2022/03/04 02:26:36;;;;;;;25.35;18.00;;;;;;;;;;5013206;28;20543;-81
2022/03/04 02:29:02;;;;;;;27.25;17.25;;;;;;;;;;5012967;28;20026;-82
2022/03/04 02:31:28;;;;;;;23.92;17.85;;;;;;;;;;5013165;28;20061;-81
2022/03/04 02:33:54;;;;;;;25.00;17.73;;;;;;;;;;5013256;28;20069;-82
2022/03/04 02:36:20;;;;;;;26.40;17.98;;;;;;;;;;4995410;28;20530;-83
2022/03/04 02:38:47;;;;;;;30.20;20.25;;;;;;;;;;4995535;28;20083;-84
2022/03/04 02:41:13;;;;;;;30.27;20.08;;;;;;;;;;5012903;28;20111;-82
2022/03/04 02:43:39;;;;;;;32.03;21.77;;;;;;;;;;5013100;28;20385;-81
2022/03/04 02:46:05;;;;;;;32.65;22.05;;;;;;;;;;5012881;28;20049;-81
2022/03/04 02:48:32;;;;;;;33.97;21.67;;;;;;;;;;4995397;28;20048;-81
2022/03/04 02:50:58;;;;;;;28.25;17.80;;;;;;;;;;5012971;28;20025;-82
2022/03/04 02:53:24;;;;;;;28.73;18.60;;;;;;;;;;5012616;28;20030;-83
2022/03/04 02:55:50;;;;;;;26.13;16.58;;;;;;;;;;5013100;28;20065;-80
2022/03/04 02:58:16;;;;;;;23.45;15.95;;;;;;;;;;5012715;28;20022;-81
2022/03/04 03:00:42;;;;;;;21.33;14.60;;;;;;;;;;5012998;28;20064;-82
2022/03/04 03:03:08;;;;;;;24.02;16.00;;;;;;;;;;5012692;28;20026;-81
2022/03/04 03:05:34;;;;;;;26.40;14.98;;;;;;;;;;5012547;28;20022;-82
2022/03/04 03:08:00;;;;;;;23.23;14.85;;;;;;;;;;5012713;28;20508;-81
2022/03/04 03:10:27;;;;;;;19.35;14.73;;;;;;;;;;5012563;28;20037;-83
2022/03/04 03:12:53;;;;;;;21.00;14.30;;;;;;;;;;5012680;28;20030;-83
2022/03/04 03:15:19;;;;;;;20.05;13.90;;;;;;;;;;5012515;28;20026;-83
2022/03/04 03:17:45;;;;;;;20.85;13.15;;;;;;;;;;5012837;28;20038;-81
2022/03/04 03:20:12;;;;;;;19.58;13.90;;;;;;;;;;5012548;28;20030;-82
2022/03/04 03:22:38;;;;;;;20.90;14.43;;;;;;;;;;5012593;28;20026;-83
2022/03/04 03:25:04;;;;;;;22.58;15.50;;;;;;;;;;5012677;28;20037;-81
2022/03/04 03:27:30;;;;;;;20.27;13.77;;;;;;;;;;5012473;28;20030;-83
2022/03/04 03:29:57;;;;;;;21.52;14.25;;;;;;;;;;4995309;28;20366;-83
2022/03/04 03:32:23;;;;;;;18.52;13.93;;;;;;;;;;5012412;28;20026;-82
2022/03/04 03:34:49;;;;;;;23.55;16.45;;;;;;;;;;5013466;28;20034;-81
2022/03/04 03:37:16;;;;;;;25.60;18.15;;;;;;;;;;5016469;28;20021;-82
2022/03/04 03:39:42;;;;;;;25.77;17.42;;;;;;;;;;5016458;28;20026;-82
2022/03/04 03:42:08;;;;;;;26.98;19.85;;;;;;;;;;5016410;28;20033;-82
2022/03/04 03:44:34;;;;;;;23.52;16.40;;;;;;;;;;5016125;28;20069;-82
2022/03/04 03:47:00;;;;;;;25.33;17.52;;;;;;;;;;5016405;28;20026;-83
2022/03/04 03:49:26;;;;;;;31.52;21.38;;;;;;;;;;5015901;28;20026;-82
2022/03/04 03:51:52;;;;;;;33.33;21.52;;;;;;;;;;5016324;28;20132;-82
2022/03/04 03:54:19;;;;;;;28.63;18.73;;;;;;;;;;5016048;28;20465;-81
2022/03/04 03:56:45;;;;;;;27.85;18.50;;;;;;;;;;5016037;28;20421;-81
2022/03/04 03:59:11;;;;;;;25.08;17.80;;;;;;;;;;5015957;28;20021;-83
2022/03/04 04:01:38;;;;;;;26.17;16.85;;;;;;;;;;5015829;28;20029;-84
2022/03/04 04:04:06;;;;;;;25.05;17.45;;;;;;;;;;5015897;28;20032;-81
2022/03/04 04:06:32;;;;;;;27.40;17.65;;;;;;;;;;5015701;28;20470;-82
2022/03/04 04:09:00;;;;;;;24.80;17.73;;;;;;;;;;5015897;28;20026;-82
2022/03/04 04:11:27;;;;;;;29.40;19.88;;;;;;;;;;5015737;28;20096;-82
2022/03/04 04:13:53;;;;;;;26.17;18.67;;;;;;;;;;5015647;28;20057;-83
2022/03/04 04:16:21;;;;;;;27.92;18.50;;;;;;;;;;5015372;28;20038;-82
2022/03/04 04:18:48;;;;;;;28.88;20.38;;;;;;;;;;5015454;28;20025;-83
2022/03/04 04:21:14;;;;;;;28.67;20.10;;;;;;;;;;5016002;28;20378;-82
2022/03/04 04:23:40;;;;;;;28.38;18.40;;;;;;;;;;5015367;28;20052;-83
2022/03/04 04:26:08;;;;;;;28.92;17.38;;;;;;;;;;5015471;28;20095;-82
2022/03/04 04:28:34;;;;;;;28.73;17.48;;;;;;;;;;5015412;28;20025;-82
2022/03/04 04:31:01;;;;;;;21.75;15.73;;;;;;;;;;5015569;28;20072;-82
2022/03/04 04:33:27;;;;;;;22.00;15.63;;;;;;;;;;5015372;28;20026;-83
2022/03/04 04:35:53;;;;;;;22.52;14.07;;;;;;;;;;5015393;28;20473;-83
2022/03/04 04:38:19;;;;;;;21.08;14.85;;;;;;;;;;5015300;28;20158;-83
2022/03/04 04:40:45;;;;;;;22.20;15.55;;;;;;;;;;5014915;28;20057;-82
2022/03/04 04:43:11;;;;;;;21.70;15.65;;;;;;;;;;5015294;28;20018;-82
2022/03/04 04:45:37;;;;;;;23.52;15.30;;;;;;;;;;5014627;28;20041;-83
2022/03/04 04:48:04;;;;;;;24.73;15.88;;;;;;;;;;5014409;28;20054;-82
2022/03/04 04:50:30;;;;;;;28.45;17.33;;;;;;;;;;5014850;28;20026;-82
2022/03/04 04:52:56;;;;;;;26.75;17.17;;;;;;;;;;5014981;28;20165;-82
2022/03/04 04:55:25;;;;;;;27.90;16.40;;;;;;;;;;5014956;28;20157;-82
2022/03/04 04:57:51;;;;;;;27.90;17.52;;;;;;;;;;5014626;28;20033;-83
2022/03/04 05:00:17;;;;;;;28.38;19.40;;;;;;;;;;4997178;28;20026;-82
2022/03/04 05:02:44;;;;;;;28.88;20.05;;;;;;;;;;5014563;28;20026;-82
2022/03/04 05:05:11;;;;;;;32.70;22.08;;;;;;;;;;5014787;28;20032;-83
2022/03/04 05:07:37;;;;;;;40.78;23.83;;;;;;;;;;5014264;28;20088;-81
2022/03/04 05:10:04;;;;;;;45.25;27.60;;;;;;;;;;5014418;28;20030;-82
2022/03/04 05:12:30;;;;;;;42.38;25.92;;;;;;;;;;5014644;28;20021;-84
2022/03/04 05:14:56;;;;;;;48.58;27.88;;;;;;;;;;5016076;28;20050;-82
2022/03/04 05:17:24;;;;;;;33.72;23.88;;;;;;;;;;5016305;28;20032;-80
2022/03/04 05:19:50;;;;;;;31.20;20.88;;;;;;;;;;5015302;28;20120;-84
2022/03/04 05:22:16;;;;;;;29.33;20.95;;;;;;;;;;5014432;28;20087;-82
2022/03/04 05:24:42;;;;;;;36.85;24.92;;;;;;;;;;4996759;28;20108;-81
2022/03/04 05:27:08;;;;;;;33.58;21.90;;;;;;;;;;5014220;28;20018;-83
2022/03/04 05:29:35;;;;;;;41.28;26.33;;;;;;;;;;5014445;28;20034;-82
2022/03/04 05:32:01;;;;;;;31.60;20.95;;;;;;;;;;4996755;28;20022;-82
2022/03/04 05:34:27;;;;;;;27.83;18.67;;;;;;;;;;5014312;28;20030;-82
2022/03/04 05:36:54;;;;;;;36.92;22.45;;;;;;;;;;5014549;28;20030;-82
2022/03/04 05:39:20;;;;;;;63.55;31.92;;;;;;;;;;4996536;28;20362;-82
2022/03/04 05:41:46;;;;;;;53.70;28.60;;;;;;;;;;5014115;28;20033;-81
2022/03/04 05:44:13;;;;;;;55.35;27.30;;;;;;;;;;5013890;28;20030;-82
2022/03/04 05:46:39;;;;;;;43.97;23.80;;;;;;;;;;5014090;28;20014;-82
2022/03/04 05:49:05;;;;;;;29.08;19.48;;;;;;;;;;5013866;28;20026;-83
2022/03/04 05:51:32;;;;;;;28.50;18.02;;;;;;;;;;5014061;28;20038;-84
2022/03/04 05:53:58;;;;;;;28.65;17.55;;;;;;;;;;5013488;28;20050;-83
2022/03/04 05:56:25;;;;;;;31.75;22.02;;;;;;;;;;4996245;28;20041;-81
2022/03/04 05:58:51;;;;;;;33.40;22.63;;;;;;;;;;5013394;28;20026;-83
2022/03/04 06:01:17;;;;;;;38.38;26.20;;;;;;;;;;5013568;28;20034;-81
2022/03/04 06:03:44;;;;;;;41.45;28.30;;;;;;;;;;5013778;28;20030;-82
2022/03/04 06:06:11;;;;;;;49.35;32.80;;;;;;;;;;5013555;28;20029;-80
2022/03/04 06:08:37;;;;;;;51.10;34.47;;;;;;;;;;5013580;28;20040;-80
2022/03/04 06:11:03;;;;;;;43.40;29.52;;;;;;;;;;5013106;28;20022;-80
2022/03/04 06:13:30;;;;;;;46.15;33.05;;;;;;;;;;5013307;28;20204;-81
2022/03/04 06:15:56;;;;;;;48.55;33.65;;;;;;;;;;4995477;28;20022;-81
2022/03/04 06:18:22;;;;;;;51.10;36.30;;;;;;;;;;5013349;28;20025;-82
2022/03/04 06:20:48;;;;;;;65.97;41.47;;;;;;;;;;5013299;28;20385;-80
2022/03/04 06:23:16;;;;;;;46.58;30.80;;;;;;;;;;5013003;28;20151;-80
2022/03/04 06:25:43;;;;;;;36.42;25.00;;;;;;;;;;5012863;28;20038;-83
2022/03/04 06:28:09;;;;;;;41.92;28.67;;;;;;;;;;4994931;28;20104;-84
2022/03/04 06:30:36;;;;;;;37.88;26.02;;;;;;;;;;5018878;28;20021;-84
2022/03/04 06:35:48;;;;;;;45.58;30.40;;;;;;;;;;5032369;28;20491;-82
2022/03/04 06:38:14;;;;;;;41.70;23.95;;;;;;;;;;5031939;28;20484;-81
2022/03/04 06:40:41;;;;;;;52.83;28.25;;;;;;;;;;5032124;28;20017;-82
2022/03/04 06:43:08;;;;;;;54.25;25.73;;;;;;;;;;5014819;28;20022;-83
2022/03/04 06:45:35;;;;;;;37.42;23.95;;;;;;;;;;5031625;28;20033;-82
2022/03/04 06:48:01;;;;;;;37.65;25.70;;;;;;;;;;4992487;28;20087;-83
2022/03/04 06:50:28;;;;;;;35.13;24.92;;;;;;;;;;4993402;28;20030;-84
2022/03/04 06:52:55;;;;;;;39.65;25.42;;;;;;;;;;4993771;28;20121;-83
2022/03/04 06:55:21;;;;;;;37.25;24.40;;;;;;;;;;5011471;28;20025;-82
2022/03/04 06:57:50;;;;;;;36.58;26.48;;;;;;;;;;5011075;28;20037;-82
2022/03/04 07:00:16;;;;;;;42.50;29.85;;;;;;;;;;5011268;28;20026;-82
2022/03/04 07:02:42;;;;;;;49.78;33.88;;;;;;;;;;5011425;28;20028;-81
2022/03/04 07:05:09;;;;;;;44.42;30.42;;;;;;;;;;5011487;28;20491;-83
2022/03/04 07:07:35;;;;;;;47.65;31.48;;;;;;;;;;5010800;28;20120;-84
2022/03/04 07:10:04;;;;;;;47.22;31.52;;;;;;;;;;5010552;28;20021;-83
2022/03/04 07:12:30;;;;;;;49.65;33.40;;;;;;;;;;4993448;28;20421;-83
2022/03/04 07:14:56;;;;;;;46.33;32.33;;;;;;;;;;4993054;28;20758;-83
2022/03/04 07:17:25;;;;;;;43.72;31.45;;;;;;;;;;5011086;28;20033;-83
2022/03/04 07:19:51;;;;;;;32.88;22.73;;;;;;;;;;5010915;28;20029;-82
2022/03/04 07:22:18;;;;;;;34.58;24.42;;;;;;;;;;5011357;28;20389;-81
2022/03/04 07:24:44;;;;;;;34.65;23.42;;;;;;;;;;5010992;28;20033;-81
2022/03/04 07:27:10;;;;;;;27.17;20.20;;;;;;;;;;5011356;28;20061;-84
2022/03/04 07:29:36;;;;;;;39.97;26.45;;;;;;;;;;5011035;28;20020;-83
2022/03/04 07:32:06;;;;;;;40.03;30.27;;;;;;;;;;5025209;28;20055;-81
2022/03/04 07:34:32;;;;;;;46.30;31.40;;;;;;;;;;5030856;28;20036;-82
2022/03/04 07:36:58;;;;;;;32.97;19.92;;;;;;;;;;5012798;28;20036;-82
2022/03/04 07:39:34;;;;;;;52.90;29.52;;;;;;;;;;5030634;28;20017;-81
2022/03/04 07:42:01;;;;;;;23.98;18.63;;;;;;;;;;5030784;28;20748;-83
2022/03/04 07:44:28;;;;;;;26.25;17.77;;;;;;;;;;5031046;28;20033;-84
2022/03/04 07:46:54;;;;;;;30.55;20.98;;;;;;;;;;5029840;28;20022;-80
2022/03/04 07:49:22;;;;;;;28.00;20.25;;;;;;;;;;5030755;28;20028;-82
2022/03/04 07:51:49;;;;;;;31.15;22.60;;;;;;;;;;5030556;28;20374;-82
2022/03/04 07:54:15;;;;;;;32.15;23.48;;;;;;;;;;5012790;28;20026;-83
2022/03/04 07:56:41;;;;;;;47.05;31.98;;;;;;;;;;5012989;28;20131;-81
2022/03/04 07:59:07;;;;;;;37.70;26.45;;;;;;;;;;5012995;28;20030;-82
2022/03/04 08:01:33;;;;;;;69.07;47.45;;;;;;;;;;5030611;28;20029;-81
2022/03/04 08:03:59;;;;;;;69.40;46.05;;;;;;;;;;5030489;28;20087;-82
2022/03/04 08:06:25;;;;;;;55.78;40.05;;;;;;;;;;5030612;28;20057;-82
2022/03/04 08:08:54;;;;;;;38.28;26.70;;;;;;;;;;5030451;28;20037;-80
2022/03/04 08:11:21;;;;;;;30.40;21.60;;;;;;;;;;5030424;28;20049;-81
2022/03/04 08:13:47;;;;;;;60.35;40.58;;;;;;;;;;5030395;28;20041;-82
2022/03/04 08:16:13;;;;;;;31.95;22.33;;;;;;;;;;5029992;28;20135;-82
2022/03/04 08:18:40;;;;;;;27.88;20.55;;;;;;;;;;5012679;28;20036;-80
2022/03/04 08:21:06;;;;;;;26.20;17.23;;;;;;;;;;5031290;28;20025;-82
2022/03/04 08:23:32;;;;;;;27.23;16.55;;;;;;;;;;5015756;28;20116;-81
2022/03/04 08:26:03;;;;;;;21.30;15.52;;;;;;;;;;5033830;28;20026;-79
2022/03/04 08:28:33;;;;;;;21.60;15.45;;;;;;;;;;5033430;28;20037;-85
2022/03/04 08:30:59;;;;;;;19.35;13.15;;;;;;;;;;5033102;28;20017;-81
2022/03/04 08:33:27;;;;;;;17.25;14.23;;;;;;;;;;5016088;28;20112;-81
2022/03/04 08:35:54;;;;;;;21.75;14.70;;;;;;;;;;5033390;28;20532;-79
2022/03/04 08:38:20;;;;;;;20.48;15.77;;;;;;;;;;5015573;28;20037;-82
2022/03/04 08:40:46;;;;;;;20.80;15.90;;;;;;;;;;5015988;28;20438;-80
2022/03/04 08:43:13;;;;;;;23.42;16.75;;;;;;;;;;5033378;28;20029;-82
2022/03/04 08:45:39;;;;;;;27.42;18.92;;;;;;;;;;5015557;28;20030;-83
2022/03/04 08:48:06;;;;;;;21.08;16.55;;;;;;;;;;5015421;28;20033;-85
2022/03/04 08:50:33;;;;;;;27.10;18.55;;;;;;;;;;5033266;28;20080;-84
2022/03/04 08:53:01;;;;;;;25.25;16.02;;;;;;;;;;5033236;28;20431;-82
2022/03/04 08:55:30;;;;;;;26.92;15.50;;;;;;;;;;5032832;28;20057;-83
2022/03/04 08:58:05;;;;;;;21.88;15.23;;;;;;;;;;5033051;28;20029;-83
2022/03/04 09:00:38;;;;;;;14.50;11.95;;;;;;;;;;5032788;28;20037;-80
2022/03/04 09:03:04;;;;;;;16.63;11.90;;;;;;;;;;5032763;28;20041;-82
2022/03/04 09:05:30;;;;;;;13.18;10.48;;;;;;;;;;5033221;28;20045;-83
2022/03/04 09:07:57;;;;;;;15.27;10.90;;;;;;;;;;5033536;28;20056;-79
2022/03/04 09:10:27;;;;;;;14.90;12.85;;;;;;;;;;5014927;28;20028;-82
2022/03/04 09:12:53;;;;;;;13.65;11.05;;;;;;;;;;5032972;28;20029;-81
2022/03/04 09:15:19;;;;;;;13.15;10.38;;;;;;;;;;5032514;28;20029;-79
2022/03/04 09:17:45;;;;;;;13.05;10.38;;;;;;;;;;5033283;28;20441;-79
2022/03/04 09:20:13;;;;;;;14.50;10.40;;;;;;;;;;5032946;28;20061;-80
2022/03/04 09:22:40;;;;;;;13.70;10.55;;;;;;;;;;5015045;28;20029;-80
2022/03/04 09:25:06;;;;;;;16.80;12.43;;;;;;;;;;5007846;28;20125;-80
2022/03/04 09:27:32;;;;;;;12.10;10.52;;;;;;;;;;4995147;28;20473;-81
2022/03/04 09:29:58;;;;;;;18.20;11.30;;;;;;;;;;4995119;28;20018;-82
2022/03/04 09:32:24;;;;;;;22.33;16.98;;;;;;;;;;5028753;28;20032;-81
2022/03/04 09:34:51;;;;;;;24.52;17.08;;;;;;;;;;5032605;28;20029;-79
2022/03/04 09:37:17;;;;;;;28.67;19.77;;;;;;;;;;5032118;28;20076;-80
2022/03/04 09:39:43;;;;;;;24.65;18.10;;;;;;;;;;5032546;28;20029;-80
2022/03/04 09:42:12;;;;;;;23.45;17.42;;;;;;;;;;5032597;28;20026;-80
2022/03/04 09:44:42;;;;;;;22.20;15.63;;;;;;;;;;5032110;28;20092;-80
2022/03/04 09:47:10;;;;;;;18.63;14.57;;;;;;;;;;5013733;28;20022;-79
2022/03/04 09:49:37;;;;;;;18.38;12.40;;;;;;;;;;5031894;28;20079;-80
2022/03/04 09:52:04;;;;;;;13.43;11.73;;;;;;;;;;5032146;28;20029;-80
2022/03/04 09:54:30;;;;;;;14.85;11.80;;;;;;;;;;5031792;28;20029;-79
2022/03/04 09:56:57;;;;;;;17.55;11.65;;;;;;;;;;5031904;28;20021;-79
2022/03/04 09:59:51;;;;;;;13.52;9.95;;;;;;;;;;5031911;28;20087;-82
2022/03/04 10:02:17;;;;;;;16.40;11.00;;;;;;;;;;5031637;28;20474;-81
2022/03/04 10:04:43;;;;;;;12.63;9.93;;;;;;;;;;5032058;28;20044;-81
2022/03/04 10:07:29;;;;;;;12.50;9.65;;;;;;;;;;5032138;28;20109;-81
2022/03/04 10:09:57;;;;;;;10.30;9.18;;;;;;;;;;5014258;28;20029;-81
2022/03/04 10:12:23;;;;;;;13.00;10.75;;;;;;;;;;5031710;28;20032;-81
2022/03/04 10:14:56;;;;;;;11.10;8.73;;;;;;;;;;5013923;28;20243;-82
2022/03/04 10:17:22;;;;;;;11.90;8.95;;;;;;;;;;5031700;28;20473;-83
2022/03/04 10:19:55;;;;;;;14.65;9.07;;;;;;;;;;5014039;28;20029;-81
2022/03/04 10:22:22;;;;;;;13.18;8.75;;;;;;;;;;5031664;28;20029;-79
2022/03/04 10:24:48;;;;;;;9.98;7.95;;;;;;;;;;5031542;28;20021;-82
2022/03/04 10:27:16;;;;;;;12.80;8.57;;;;;;;;;;5013794;28;20040;-79
2022/03/04 10:29:44;;;;;;;11.80;9.57;;;;;;;;;;5031293;28;20037;-79
2022/03/04 10:32:18;;;;;;;13.68;9.65;;;;;;;;;;5031581;28;20063;-79
2022/03/04 10:35:05;;;;;;;13.40;8.88;;;;;;;;;;5013483;28;20061;-81
2022/03/04 10:37:54;;;;;;;44.80;29.25;;;;;;;;;;5031526;28;20080;-81
2022/03/04 10:40:21;;;;;;;14.15;10.45;;;;;;;;;;5031372;28;20026;-80
2022/03/04 10:42:52;;;;;;;17.35;10.55;;;;;;;;;;5031440;28;20021;-81
2022/03/04 10:45:37;;;;;;;10.88;8.70;;;;;;;;;;5031844;28;20029;-86
2022/03/04 10:48:07;;;;;;;13.45;9.10;;;;;;;;;;5030740;28;20030;-81
2022/03/04 10:50:42;;;;;;;10.60;7.75;;;;;;;;;;5030448;28;20115;-82
2022/03/04 10:53:14;;;;;;;10.23;7.82;;;;;;;;;;5013205;28;20109;-82
2022/03/04 10:55:44;;;;;;;9.63;7.80;;;;;;;;;;5030959;28;20036;-81
2022/03/04 10:58:16;;;;;;;8.88;7.88;;;;;;;;;;5031233;28;20037;-80
2022/03/04 11:00:45;;;;;;;10.05;8.15;;;;;;;;;;5030825;28;20033;-81
2022/03/04 11:03:14;;;;;;;18.88;9.32;;;;;;;;;;5031288;28;20025;-82
2022/03/04 11:05:40;;;;;;;11.48;8.30;;;;;;;;;;5012900;28;20033;-79
2022/03/04 11:08:06;;;;;;;11.32;8.07;;;;;;;;;;5031192;28;20056;-85
2022/03/04 11:10:32;;;;;;;14.80;8.68;;;;;;;;;;5013487;28;20032;-83
2022/03/04 11:12:58;;;;;;;12.43;8.65;;;;;;;;;;5030256;28;20033;-81
2022/03/04 11:15:25;;;;;;;10.68;8.38;;;;;;;;;;5030855;28;20072;-81
2022/03/04 11:17:54;;;;;;;11.95;8.80;;;;;;;;;;5030626;28;20026;-81
2022/03/04 11:20:20;;;;;;;8.55;6.97;;;;;;;;;;5030880;28;20035;-83
2022/03/04 11:22:49;;;;;;;11.57;7.95;;;;;;;;;;5031510;28;20029;-80
2022/03/04 11:25:16;;;;;;;11.45;8.40;;;;;;;;;;5012764;28;20037;-81
2022/03/04 11:27:43;;;;;;;13.35;8.55;;;;;;;;;;5030012;28;20434;-83
2022/03/04 11:30:32;;;;;;;10.70;6.78;;;;;;;;;;5029730;28;20091;-81
2022/03/04 11:33:11;;;;;;;9.65;6.78;;;;;;;;;;5030065;28;20025;-81
2022/03/04 11:36:02;;;;;;;9.38;7.10;;;;;;;;;;5030356;28;20033;-84
2022/03/04 11:38:47;;;;;;;10.68;7.20;;;;;;;;;;5012495;28;20033;-83
2022/03/04 11:41:35;;;;;;;7.63;6.03;;;;;;;;;;5030537;28;20027;-82
2022/03/04 11:44:23;;;;;;;10.02;5.63;;;;;;;;;;5013105;28;20025;-82
2022/03/04 11:46:59;;;;;;;11.07;6.72;;;;;;;;;;4996826;28;20533;-83
2022/03/04 11:49:46;;;;;;;13.10;8.13;;;;;;;;;;4995056;28;20026;-81
2022/03/04 11:52:37;;;;;;;9.15;6.45;;;;;;;;;;5010991;28;20030;-83
2022/03/04 11:55:16;;;;;;;7.53;5.35;;;;;;;;;;4990117;28;20552;-83
2022/03/04 11:57:44;;;;;;;7.38;5.55;;;;;;;;;;4994698;28;20018;-82
2022/03/04 12:00:10;;;;;;;8.13;4.95;;;;;;;;;;4995167;28;20082;-82
2022/03/04 12:02:44;;;;;;;8.38;5.47;;;;;;;;;;4994980;28;20026;-83
2022/03/04 12:05:10;;;;;;;;;;;;;;;;;;4977454;28;20095;-81
2022/03/04 12:07:36;;;;;;;22.45;6.43;;;;;;;;;;4995035;28;19909;-81
2022/03/04 12:10:03;;;;;;;13.52;7.45;;;;;;;;;;4994900;28;20616;-82
2022/03/04 12:12:29;;;;;;;9.98;6.38;;;;;;;;;;4994878;28;20049;-80
2022/03/04 12:15:16;;;;;;;10.13;5.85;;;;;;;;;;4994542;28;20501;-82
2022/03/04 12:18:02;;;;;;;9.45;6.25;;;;;;;;;;4996846;28;20108;-80
2022/03/04 12:20:40;;;;;;;8.55;5.88;;;;;;;;;;5014169;28;20576;-81
2022/03/04 12:23:18;;;;;;;8.85;5.55;;;;;;;;;;5013773;28;20026;-81
2022/03/04 12:25:53;;;;;;;8.63;5.95;;;;;;;;;;5013626;28;20034;-81
2022/03/04 12:28:24;;;;;;;11.43;7.50;;;;;;;;;;5010784;28;20590;-80
2022/03/04 12:31:09;;;;;;;9.38;5.53;;;;;;;;;;5007107;28;20065;-80
2022/03/04 12:33:36;;;;;;;7.78;6.22;;;;;;;;;;5034856;28;20029;-82
2022/03/04 12:36:04;;;;;;;9.43;6.18;;;;;;;;;;5034175;28;20096;-80
2022/03/04 12:38:49;;;;;;;16.05;8.77;;;;;;;;;;5006850;28;20389;-81
2022/03/04 12:41:18;;;;;;;;;;;;;;;;;;5015187;28;20092;-82
2022/03/04 12:43:57;;;;;;;15.02;7.78;;;;;;;;;;5015817;28;19958;-82
2022/03/04 12:46:24;;;;;;;13.73;6.60;;;;;;;;;;5013644;28;20038;-80
2022/03/04 12:48:52;;;;;;;10.80;7.20;;;;;;;;;;5002100;28;20022;-80
2022/03/04 12:51:19;;;;;;;9.20;7.15;;;;;;;;;;4995534;28;20621;-80
2022/03/04 12:53:45;;;;;;;18.45;7.35;;;;;;;;;;4994901;28;20054;-79
2022/03/04 12:56:12;;;;;;;12.35;8.13;;;;;;;;;;4994165;28;20026;-82
2022/03/04 12:58:39;;;;;;;10.77;6.50;;;;;;;;;;4994661;28;20478;-83
2022/03/04 13:01:07;;;;;;;8.20;7.07;;;;;;;;;;4977197;28;20504;-82
2022/03/04 13:03:43;;;;;;;9.43;7.00;;;;;;;;;;4995443;28;20029;-84
2022/03/04 13:06:12;;;;;;;16.90;6.10;;;;;;;;;;4994443;28;20133;-84
2022/03/04 13:09:12;;;;;;;31.92;23.38;;;;;;;;;;5009218;28;20437;-86
2022/03/04 13:11:42;;;;;;;11.32;7.72;;;;;;;;;;4983509;28;20130;-81
2022/03/04 13:14:16;;;;;;;25.65;16.05;;;;;;;;;;4981945;28;20445;-82
2022/03/04 13:16:42;;;;;;;9.68;6.97;;;;;;;;;;4974937;28;20046;-81
2022/03/04 13:19:10;;;;;;;7.95;5.85;;;;;;;;;;4956520;28;20035;-82
2022/03/04 13:21:40;;;;;;;13.85;7.05;;;;;;;;;;4971823;28;20139;-81
2022/03/04 13:24:10;;;;;;;10.15;5.95;;;;;;;;;;4972517;28;20031;-81
2022/03/04 13:26:36;;;;;;;10.10;7.22;;;;;;;;;;4980286;28;20172;-82
2022/03/04 13:29:04;;;;;;;9.20;6.05;;;;;;;;;;4975943;28;20161;-82
2022/03/04 13:31:34;;;;;;;9.23;6.38;;;;;;;;;;4989676;28;20030;-83
2022/03/04 13:34:18;;;;;;;9.23;6.60;;;;;;;;;;4954936;28;20031;-83
2022/03/04 13:40:20;;;;;;;15.75;10.68;;;;;;;;;;4933879;29;20039;-83
2022/03/04 13:42:59;;;;;;;20.42;10.98;;;;;;;;;;4933442;29;20075;-82
2022/03/04 13:45:46;;;;;;;20.60;9.25;;;;;;;;;;4961821;28;20034;-83
2022/03/04 13:48:12;;;;;;;17.77;8.05;;;;;;;;;;4992578;28;20030;-83
2022/03/04 13:50:45;;;;;;;38.83;18.83;;;;;;;;;;4976296;28;20498;-82
2022/03/04 13:53:19;;;;;;;47.83;30.40;;;;;;;;;;4992914;28;20433;-81
2022/03/04 13:55:58;;;;;;;21.17;11.98;;;;;;;;;;4999558;28;20060;-81
2022/03/04 13:58:26;;;;;;;10.20;7.57;;;;;;;;;;4978898;28;20049;-80
2022/03/04 14:00:53;;;;;;;11.32;7.72;;;;;;;;;;4994351;28;20037;-81
2022/03/04 14:03:23;;;;;;;13.90;8.55;;;;;;;;;;4986285;28;20116;-84
2022/03/04 14:05:57;;;;;;;28.88;14.85;;;;;;;;;;4995003;28;20032;-82
2022/03/04 14:08:24;;;;;;;41.72;14.20;;;;;;;;;;5013308;28;20499;-82
2022/03/04 14:10:50;;;;;;;16.13;10.90;;;;;;;;;;4995405;28;20026;-83
2022/03/04 14:13:20;;;;;;;15.45;9.85;;;;;;;;;;4995525;28;20093;-82
2022/03/04 14:15:47;;;;;;;18.30;12.02;;;;;;;;;;4988919;28;20457;-81
2022/03/04 14:18:15;;;;;;;34.88;17.90;;;;;;;;;;4993286;28;20053;-81
2022/03/04 14:20:42;;;;;;;22.77;13.20;;;;;;;;;;4993609;28;20018;-82
2022/03/04 14:23:09;;;;;;;18.35;11.95;;;;;;;;;;4993166;28;20038;-82
2022/03/04 14:25:36;;;;;;;10.95;8.13;;;;;;;;;;4993683;28;20389;-82
2022/03/04 14:28:03;;;;;;;21.63;11.02;;;;;;;;;;4999547;28;20113;-83
2022/03/04 14:30:30;;;;;;;16.63;9.27;;;;;;;;;;5020136;28;20021;-80
2022/03/04 14:32:58;;;;;;;21.10;10.65;;;;;;;;;;5032452;28;20040;-80
2022/03/04 14:35:26;;;;;;;12.35;8.80;;;;;;;;;;5032460;28;20056;-82